createdAt,value
2019-02-22T02:00:25.326Z,402.13
2019-02-22T02:02:56.358Z,378.67
2019-02-22T02:05:27.461Z,405.10
2019-02-22T02:07:58.525Z,439.53
2019-02-22T02:10:29.604Z,410.27
2019-02-22T02:13:00.645Z,411.17
2019-02-22T02:15:31.712Z,388.03
2019-02-22T02:18:02.752Z,360.60
2019-02-22T02:20:34.464Z,344.00
2019-02-22T02:23:05.621Z,335.67
2019-02-22T02:25:36.689Z,338.20
2019-02-22T02:28:07.745Z,362.80
2019-02-22T02:30:38.813Z,353.10
2019-02-22T02:33:09.865Z,344.03
2019-02-22T02:35:40.916Z,334.80
2019-02-22T02:38:11.975Z,353.50
2019-02-22T02:40:43.035Z,352.60
2019-02-22T02:43:14.073Z,356.53
2019-02-22T02:45:45.131Z,347.83
2019-02-22T02:48:16.187Z,360.83
2019-02-22T02:50:48.764Z,349.03
2019-02-22T02:53:19.783Z,349.07
2019-02-22T02:55:50.833Z,309.57
2019-02-22T02:58:22.418Z,356.83
2019-02-22T03:00:53.485Z,346.93
2019-02-22T03:03:24.557Z,364.03
2019-02-22T03:06:03.666Z,358.27
2019-02-22T03:08:37.532Z,342.50
2019-02-22T03:11:19.697Z,342.20
2019-02-22T03:13:41.325Z,347.47
2019-02-22T03:16:12.367Z,355.80
2019-02-22T03:18:43.412Z,345.10
2019-02-22T03:21:14.474Z,348.00
2019-02-22T03:23:45.516Z,357.63
2019-02-22T03:26:16.565Z,383.00
2019-02-22T03:28:47.612Z,354.33
2019-02-22T03:31:18.702Z,357.50
2019-02-22T03:33:49.785Z,353.20
2019-02-22T03:36:20.817Z,348.97
2019-02-22T03:38:51.862Z,370.20
2019-02-22T03:41:32.273Z,350.17
2019-02-22T03:43:55.662Z,365.60
2019-02-22T03:46:26.705Z,365.07
2019-02-22T03:48:57.748Z,368.23
2019-02-22T03:51:28.784Z,379.03
2019-02-22T03:54:01.913Z,373.60
2019-02-22T03:56:33.063Z,362.17
2019-02-22T03:59:04.195Z,370.97
2019-02-22T04:01:35.252Z,362.57
2019-02-22T04:04:06.294Z,360.53
2019-02-22T04:06:37.397Z,361.37
2019-02-22T04:09:12.710Z,368.23
2019-02-22T04:11:46.049Z,364.73
2019-02-22T04:14:16.498Z,385.53
2019-02-22T04:16:47.546Z,360.23
2019-02-22T04:19:18.626Z,351.70
2019-02-22T04:21:49.685Z,363.63
2019-02-22T04:24:20.724Z,427.23
2019-02-22T04:26:51.768Z,448.77
2019-02-22T04:29:22.845Z,468.43
2019-02-22T04:31:53.889Z,469.93
2019-02-22T04:34:24.990Z,480.60
2019-02-22T04:36:56.024Z,497.83
2019-02-22T04:39:27.129Z,490.27
2019-02-22T04:41:58.510Z,492.23
2019-02-22T04:44:29.697Z,491.03
2019-02-22T04:47:00.830Z,504.50
2019-02-22T04:49:31.899Z,495.60
2019-02-22T04:52:02.940Z,513.77
2019-02-22T04:54:34.093Z,517.70
2019-02-22T04:57:05.149Z,516.73
2019-02-22T04:59:36.273Z,519.13
2019-02-22T05:02:07.409Z,499.83
2019-02-22T05:04:38.464Z,495.77
2019-02-22T05:07:09.648Z,489.97
2019-02-22T05:09:40.726Z,512.90
2019-02-22T05:12:11.742Z,518.37
2019-02-22T05:14:42.795Z,508.63
2019-02-22T05:17:13.902Z,509.57
2019-02-22T05:19:44.943Z,498.53
2019-02-22T05:22:16.003Z,531.07
2019-02-22T05:24:47.043Z,513.90
2019-02-22T05:27:18.143Z,508.40
2019-02-22T05:29:49.196Z,508.37
2019-02-22T05:32:20.259Z,519.40
2019-02-22T05:34:51.280Z,515.33
2019-02-22T05:37:22.367Z,508.83
2019-02-22T05:39:53.421Z,517.20
2019-02-22T05:42:24.471Z,519.30
2019-02-22T05:44:55.528Z,501.00
2019-02-22T05:47:26.582Z,516.77
2019-02-22T05:49:57.622Z,322.30
2019-02-22T05:52:28.693Z,348.68
2019-02-22T05:54:59.823Z,327.20
2019-02-22T05:57:30.869Z,304.63
2019-02-22T06:00:02.023Z,302.20
2019-02-22T06:02:34.067Z,276.50
2019-02-22T06:05:05.394Z,270.27
2019-02-22T06:07:36.458Z,294.47
2019-02-22T06:10:07.917Z,292.63
2019-02-22T06:12:38.992Z,270.03
2019-02-22T06:15:10.098Z,286.97
2019-02-22T06:17:41.173Z,302.40
2019-02-22T06:20:12.263Z,268.13
2019-02-22T06:22:43.334Z,267.60
2019-02-22T06:25:14.510Z,289.93
2019-02-22T06:27:45.614Z,248.80
2019-02-22T06:30:16.657Z,257.13
2019-02-22T06:32:47.996Z,242.67
2019-02-22T06:35:19.119Z,246.10
2019-02-22T06:37:50.204Z,223.83
2019-02-22T06:40:21.264Z,237.63
2019-02-22T06:42:52.374Z,229.63
2019-02-22T06:45:23.428Z,246.97
2019-02-22T06:47:54.552Z,207.23
2019-02-22T06:50:33.784Z,205.90
2019-02-22T06:52:58.313Z,247.33
2019-02-22T06:55:29.405Z,263.30
2019-02-22T06:58:00.650Z,244.63
2019-02-22T07:00:31.693Z,265.77
2019-02-22T07:03:02.781Z,260.90
2019-02-22T07:05:33.855Z,257.13
2019-02-22T07:08:04.965Z,268.20
2019-02-22T07:10:53.811Z,279.87
2019-02-22T07:13:24.904Z,252.90
2019-02-22T07:15:55.953Z,255.33
2019-02-22T07:18:27.089Z,276.27
2019-02-22T07:20:58.140Z,269.73
2019-02-22T07:23:29.220Z,263.03
2019-02-22T07:26:00.265Z,231.70
2019-02-22T07:28:31.357Z,242.90
2019-02-22T07:31:02.416Z,239.63
2019-02-22T07:33:33.537Z,258.00
2019-02-22T07:36:09.647Z,251.03
2019-02-22T07:38:40.723Z,253.27
2019-02-22T07:41:11.790Z,258.17
2019-02-22T07:43:42.873Z,243.20
2019-02-22T07:46:14.080Z,246.93
2019-02-22T07:48:45.169Z,233.87
2019-02-22T07:51:16.708Z,236.03
2019-02-22T07:53:48.061Z,250.03
2019-02-22T07:56:19.346Z,221.23
2019-02-22T07:58:50.948Z,226.87
2019-02-22T08:01:21.977Z,215.23
2019-02-22T08:03:53.194Z,255.03
2019-02-22T08:06:24.236Z,276.87
2019-02-22T08:08:55.349Z,262.43
2019-02-22T08:11:26.374Z,237.80
2019-02-22T08:13:57.515Z,246.50
2019-02-22T08:16:28.551Z,274.90
2019-02-22T08:19:01.786Z,250.37
2019-02-22T08:21:32.347Z,236.43
2019-02-22T08:24:03.439Z,207.70
2019-02-22T08:26:34.466Z,189.13
2019-02-22T08:29:05.691Z,196.73
2019-02-22T08:31:36.773Z,188.37
2019-02-22T08:34:07.865Z,201.30
2019-02-22T08:36:38.907Z,199.83
2019-02-22T08:39:10.096Z,190.27
2019-02-22T08:41:41.129Z,167.87
2019-02-22T08:44:12.222Z,177.30
2019-02-22T08:46:43.267Z,140.20
2019-02-22T08:49:14.385Z,143.30
2019-02-22T08:51:45.502Z,132.80
2019-02-22T08:54:16.567Z,125.73
2019-02-22T08:56:47.647Z,113.53
2019-02-22T08:59:18.721Z,118.53
2019-02-22T09:01:49.760Z,121.17
2019-02-22T09:04:20.834Z,108.37
2019-02-22T09:06:52.491Z,108.03
2019-02-22T09:09:23.666Z,116.13
2019-02-22T09:11:57.469Z,122.70
2019-02-22T09:14:27.601Z,116.67
2019-02-22T09:16:58.692Z,136.77
2019-02-22T09:19:29.807Z,116.07
2019-02-22T09:22:00.836Z,121.67
2019-02-22T09:24:31.866Z,88.40
2019-02-22T09:27:02.921Z,70.43
2019-02-22T09:29:33.954Z,76.23
2019-02-22T09:32:04.999Z,87.43
2019-02-22T09:34:36.090Z,96.03
2019-02-22T09:37:07.101Z,97.57
2019-02-22T09:39:38.214Z,82.10
2019-02-22T09:42:09.256Z,78.33
2019-02-22T09:44:40.395Z,68.33
2019-02-22T09:47:11.461Z,71.13
2019-02-22T09:49:42.592Z,73.83
2019-02-22T09:52:13.626Z,71.97
2019-02-22T09:54:44.724Z,74.30
2019-02-22T09:57:15.764Z,66.57
2019-02-22T09:59:46.846Z,56.97
2019-02-22T10:02:17.917Z,59.20
2019-02-22T10:04:55.020Z,64.97
2019-02-22T10:07:22.536Z,63.67
2019-02-22T10:09:53.821Z,69.63
2019-02-22T10:12:24.864Z,60.73
2019-02-22T10:14:55.895Z,61.73
2019-02-22T10:17:26.935Z,58.00
2019-02-22T10:19:58.128Z,60.97
2019-02-22T10:22:29.187Z,63.37
2019-02-22T10:25:00.357Z,47.07
2019-02-22T10:27:31.944Z,196.83
2019-02-22T10:30:03.016Z,57.17
2019-02-22T10:32:34.038Z,53.90
2019-02-22T10:35:06.343Z,56.10
2019-02-22T10:37:38.734Z,44.80
2019-02-22T10:40:10.178Z,38.37
2019-02-22T10:42:41.228Z,46.43
2019-02-22T10:45:12.453Z,50.63
2019-02-22T10:47:43.494Z,62.63
2019-02-22T10:50:14.523Z,59.33
2019-02-22T10:52:45.561Z,44.57
2019-02-22T10:55:16.638Z,47.63
2019-02-22T10:57:47.772Z,33.77
2019-02-22T11:00:18.915Z,41.60
2019-02-22T11:02:49.946Z,28.40
2019-02-22T11:05:20.985Z,32.97
2019-02-22T11:07:52.144Z,33.47
2019-02-22T11:10:23.264Z,34.97
2019-02-22T11:12:54.335Z,38.60
2019-02-22T11:15:25.570Z,38.13
2019-02-22T11:17:56.604Z,22.97
2019-02-22T11:20:27.797Z,25.13
2019-02-22T11:22:58.818Z,26.60
2019-02-22T11:25:30.058Z,22.63
2019-02-22T11:28:01.087Z,23.30
2019-02-22T11:30:32.143Z,18.27
2019-02-22T11:33:03.073Z,6.33
2019-02-22T11:35:34.028Z,3.83
2019-02-22T11:38:05.015Z,5.33
2019-02-22T11:40:36.062Z,2.97
2019-02-22T11:43:07.093Z,3.00
2019-02-22T11:45:38.121Z,3.07
2019-02-22T11:48:09.660Z,2.70
2019-02-22T11:50:40.853Z,1.90
2019-02-22T11:53:11.828Z,2.30
2019-02-22T11:55:42.933Z,1.67
2019-02-22T11:58:14.207Z,2.07
2019-02-22T12:00:45.339Z,1.70
2019-02-22T12:03:24.558Z,2.00
2019-02-22T12:05:49.109Z,2.40
2019-02-22T12:08:20.148Z,2.00
2019-02-22T12:10:51.207Z,2.40
2019-02-22T12:13:22.315Z,2.40
2019-02-22T12:15:53.354Z,2.53
2019-02-22T12:18:24.381Z,2.30
2019-02-22T12:20:55.435Z,1.80
2019-02-22T12:23:26.464Z,2.10
2019-02-22T12:25:57.489Z,2.40
2019-02-22T12:28:28.526Z,1.63
2019-02-22T12:30:59.667Z,1.80
2019-02-22T12:33:30.682Z,1.70
2019-02-22T12:36:01.711Z,1.90
2019-02-22T12:38:32.762Z,1.57
2019-02-22T12:41:03.837Z,2.00
2019-02-22T12:43:35.033Z,1.47
2019-02-22T12:46:06.046Z,1.60
2019-02-22T12:48:37.095Z,1.47
2019-02-22T12:51:08.161Z,1.83
2019-02-22T12:53:39.203Z,1.60
2019-02-22T12:56:10.282Z,1.90
2019-02-22T12:58:41.337Z,1.50
2019-02-22T13:01:12.394Z,1.50
2019-02-22T13:03:43.463Z,1.50
2019-02-22T13:06:14.502Z,1.30
2019-02-22T13:08:45.666Z,1.70
2019-02-22T13:11:16.796Z,1.67
2019-02-22T13:13:47.867Z,1.60
2019-02-22T13:16:18.876Z,1.80
2019-02-22T13:18:49.944Z,1.60
2019-02-22T13:21:20.972Z,1.60
2019-02-22T13:23:52.070Z,1.57
2019-02-22T13:26:23.067Z,1.80
2019-02-22T13:28:54.160Z,1.50
2019-02-22T13:31:30.164Z,1.27
2019-02-22T13:33:57.914Z,1.53
2019-02-22T13:36:28.934Z,1.40
2019-02-22T13:39:00.036Z,1.47
2019-02-22T13:41:31.059Z,1.20
2019-02-22T13:44:02.172Z,1.50
2019-02-22T13:46:33.200Z,1.50
2019-02-22T13:49:05.031Z,1.30
2019-02-22T13:51:36.062Z,1.70
2019-02-22T13:54:07.250Z,1.50
2019-02-22T13:56:38.351Z,1.57
2019-02-22T13:59:09.476Z,1.70
2019-02-22T14:01:40.527Z,1.73
2019-02-22T14:04:11.872Z,1.70
2019-02-22T14:06:43.305Z,1.90
2019-02-22T14:09:14.394Z,338.90
2019-02-22T14:11:45.456Z,469.77
2019-02-22T14:14:16.566Z,580.90
2019-02-22T14:16:47.612Z,547.27
2019-02-22T14:19:19.516Z,522.67
2019-02-22T14:21:50.523Z,604.63
2019-02-22T14:24:21.640Z,602.40
2019-02-22T14:26:52.697Z,528.93
2019-02-22T14:29:23.795Z,390.23
2019-02-22T14:31:54.832Z,475.13
2019-02-22T14:34:25.987Z,359.70
2019-02-22T14:36:57.034Z,279.27
2019-02-22T14:39:28.318Z,483.50
2019-02-22T14:41:59.358Z,658.77
2019-02-22T14:44:30.463Z,800.10
2019-02-22T14:47:01.816Z,773.80
2019-02-22T14:49:33.005Z,786.40
2019-02-22T14:52:04.044Z,585.93
2019-02-22T14:54:35.121Z,825.97
2019-02-22T14:57:06.215Z,713.27
2019-02-22T14:59:37.309Z,720.13
2019-02-22T15:02:08.418Z,768.60
2019-02-22T15:04:40.449Z,693.40
2019-02-22T15:07:11.415Z,593.93
2019-02-22T15:09:42.516Z,408.17
2019-02-22T15:12:13.575Z,254.67
2019-02-22T15:14:44.664Z,505.50
2019-02-22T15:17:34.464Z,608.83
2019-02-22T15:20:06.636Z,446.83
2019-02-22T15:22:37.691Z,268.07
2019-02-22T15:25:11.178Z,185.80
2019-02-22T15:27:42.225Z,199.83
2019-02-22T15:30:14.449Z,175.97
2019-02-22T15:32:45.476Z,144.77
2019-02-22T15:35:20.576Z,164.90
2019-02-22T15:37:54.178Z,182.30
2019-02-22T15:40:27.068Z,285.83
2019-02-22T15:42:59.398Z,258.10
2019-02-22T15:45:30.454Z,263.20
2019-02-22T15:48:01.537Z,330.13
2019-02-22T15:50:36.505Z,463.83
2019-02-22T15:53:08.498Z,606.87
2019-02-22T15:55:41.337Z,590.03
2019-02-22T15:58:13.511Z,721.20
2019-02-22T16:00:46.233Z,805.73
2019-02-22T16:03:18.127Z,866.33
2019-02-22T16:05:50.435Z,807.53
2019-02-22T16:08:22.707Z,894.80
2019-02-22T16:10:54.299Z,888.73
2019-02-22T16:13:26.746Z,870.23
2019-02-22T16:15:59.608Z,879.30
2019-02-22T16:18:30.601Z,874.80
2019-02-22T16:21:01.850Z,869.90
2019-02-22T16:23:33.128Z,882.80
2019-02-22T16:26:04.213Z,877.13
2019-02-22T16:28:35.289Z,900.90
2019-02-22T16:31:06.333Z,884.23
2019-02-22T16:33:37.532Z,870.93
2019-02-22T16:36:08.611Z,794.43
2019-02-22T16:38:39.681Z,783.37
2019-02-22T16:41:10.787Z,773.17
2019-02-22T16:43:41.838Z,749.60
2019-02-22T16:46:12.932Z,749.40
2019-02-22T16:48:43.985Z,706.00
2019-02-22T16:51:15.087Z,691.07
2019-02-22T16:53:46.175Z,729.67
2019-02-22T16:56:17.343Z,728.57
2019-02-22T16:58:48.388Z,678.37
2019-02-22T17:01:19.466Z,688.13
2019-02-22T17:03:50.526Z,676.10
2019-02-22T17:06:21.895Z,699.23
2019-02-22T17:08:52.929Z,677.50
2019-02-22T17:11:24.008Z,647.80
2019-02-22T17:13:55.086Z,666.00
2019-02-22T17:16:26.170Z,636.87
2019-02-22T17:18:57.844Z,661.87
2019-02-22T17:21:28.952Z,687.47
2019-02-22T17:24:00.007Z,675.70
2019-02-22T17:26:31.123Z,710.43
2019-02-22T17:29:02.208Z,999.90
2019-02-22T17:31:33.290Z,999.90
2019-02-22T17:34:04.344Z,999.90
2019-02-22T17:36:35.441Z,999.90
2019-02-22T17:39:07.984Z,999.90
2019-02-22T17:41:39.061Z,999.90
2019-02-22T17:44:10.117Z,999.90
2019-02-22T17:46:41.192Z,999.90
2019-02-22T17:49:12.268Z,999.90
2019-02-22T17:51:43.395Z,999.90
2019-02-22T17:54:14.438Z,999.90
2019-02-22T17:56:45.523Z,999.90
2019-02-22T17:59:16.571Z,999.90
2019-02-22T18:01:48.073Z,994.60
2019-02-22T18:04:19.110Z,957.23
2019-02-22T18:06:50.172Z,901.60
2019-02-22T18:09:21.242Z,946.50
2019-02-22T18:11:52.291Z,954.37
2019-02-22T18:14:23.340Z,912.67
2019-02-22T18:16:54.378Z,912.97
2019-02-22T18:19:25.434Z,914.20
2019-02-22T18:21:56.545Z,936.13
2019-02-22T18:24:27.627Z,903.83
2019-02-22T18:26:58.685Z,921.27
2019-02-22T18:29:35.320Z,896.67
2019-02-22T18:32:02.415Z,895.57
2019-02-22T18:34:33.469Z,879.90
2019-02-22T18:37:04.499Z,873.67
2019-02-22T18:39:35.559Z,882.40
2019-02-22T18:42:06.663Z,881.23
2019-02-22T18:44:37.726Z,874.43
2019-02-22T18:47:18.792Z,850.90
2019-02-22T18:49:41.480Z,868.60
2019-02-22T18:52:12.518Z,858.50
2019-02-22T18:54:46.103Z,883.53
2019-02-22T18:57:16.346Z,861.53
2019-02-22T18:59:47.379Z,826.23
2019-02-22T19:02:18.421Z,852.60
2019-02-22T19:04:49.471Z,855.37
2019-02-22T19:07:20.516Z,859.90
2019-02-22T19:09:51.566Z,842.23
2019-02-22T19:12:22.638Z,824.70
2019-02-22T19:14:53.716Z,843.37
2019-02-22T19:17:30.336Z,826.20
2019-02-22T19:19:57.473Z,843.73
2019-02-22T19:22:28.515Z,821.20
2019-02-22T19:24:59.588Z,843.70
2019-02-22T19:27:30.659Z,817.10
2019-02-22T19:30:01.731Z,828.70
2019-02-22T19:32:32.805Z,830.93
2019-02-22T19:35:03.991Z,788.50
2019-02-22T19:37:35.040Z,811.07
2019-02-22T19:40:07.609Z,812.20
2019-02-22T19:42:38.666Z,788.87
2019-02-22T19:45:10.196Z,799.30
2019-02-22T19:47:42.354Z,813.20
2019-02-22T19:50:14.438Z,806.03
2019-02-22T19:52:45.490Z,811.63
2019-02-22T19:55:16.968Z,814.47
2019-02-22T19:57:48.223Z,816.23
2019-02-22T20:00:19.515Z,781.63
2019-02-22T20:02:50.664Z,790.03
2019-02-22T20:05:21.980Z,812.80
2019-02-22T20:07:53.014Z,803.20
2019-02-22T20:10:24.243Z,796.47
2019-02-22T20:12:55.298Z,792.07
2019-02-22T20:15:26.417Z,796.53
2019-02-22T20:17:57.481Z,805.03
2019-02-22T20:20:28.562Z,800.43
2019-02-22T20:22:59.655Z,796.00
2019-02-22T20:25:30.738Z,796.00
2019-02-22T20:28:01.817Z,794.87
2019-02-22T20:30:33.066Z,772.00
2019-02-22T20:33:04.151Z,772.57
2019-02-22T20:35:35.313Z,788.13
2019-02-22T20:38:06.406Z,777.23
2019-02-22T20:40:37.474Z,767.77
2019-02-22T20:43:08.546Z,765.17
2019-02-22T20:45:39.679Z,762.83
2019-02-22T20:48:10.739Z,777.20
2019-02-22T20:50:41.877Z,751.13
2019-02-22T20:53:12.919Z,767.97
2019-02-22T20:55:44.006Z,782.93
2019-02-22T20:58:15.113Z,754.03
2019-02-22T21:00:46.168Z,750.70
2019-02-22T21:03:17.256Z,765.27
2019-02-22T21:05:48.306Z,769.57
2019-02-22T21:08:19.353Z,763.93
2019-02-22T21:10:50.396Z,754.80
2019-02-22T21:13:21.530Z,746.17
2019-02-22T21:15:52.607Z,768.40
2019-02-22T21:18:23.668Z,756.00
2019-02-22T21:20:54.741Z,742.13
2019-02-22T21:23:25.803Z,799.57
2019-02-22T21:25:56.918Z,786.67
2019-02-22T21:28:28.015Z,746.23
2019-02-22T21:30:59.070Z,735.13
2019-02-22T21:33:30.837Z,733.37
2019-02-22T21:36:02.724Z,741.03
2019-02-22T21:38:34.561Z,755.80
2019-02-22T21:41:06.490Z,716.20
2019-02-22T21:43:38.350Z,694.20
2019-02-22T21:46:10.259Z,731.07
2019-02-22T21:48:42.555Z,706.20
2019-02-22T21:51:14.424Z,750.63
2019-02-22T21:53:46.088Z,688.50
2019-02-22T21:56:17.938Z,692.33
2019-02-22T21:58:49.786Z,708.17
2019-02-22T22:01:21.682Z,689.23
2019-02-22T22:03:53.816Z,706.27
2019-02-22T22:06:26.735Z,699.13
2019-02-22T22:08:58.372Z,727.03
2019-02-22T22:11:30.387Z,708.13
2019-02-22T22:14:03.415Z,703.03
2019-02-22T22:16:35.435Z,706.33
2019-02-22T22:19:07.360Z,701.03
2019-02-22T22:21:39.261Z,713.30
2019-02-22T22:24:11.092Z,738.37
2019-02-22T22:26:42.957Z,716.50
2019-02-22T22:29:14.800Z,706.63
2019-02-22T22:31:47.670Z,688.90
2019-02-22T22:34:19.459Z,686.20
2019-02-22T22:36:51.201Z,710.47
2019-02-22T22:39:22.968Z,691.30
2019-02-22T22:41:54.736Z,691.43
2019-02-22T22:44:26.595Z,694.00
2019-02-22T22:46:59.107Z,675.30
2019-02-22T22:49:31.361Z,696.20
2019-02-22T22:52:03.314Z,678.03
2019-02-22T22:54:35.153Z,683.17
2019-02-22T22:57:07.184Z,156.50
2019-02-22T22:59:39.115Z,159.60
2019-02-22T23:02:11.447Z,213.17
2019-02-22T23:04:44.410Z,191.00
2019-02-22T23:07:15.446Z,256.10
2019-02-22T23:09:46.585Z,271.77
2019-02-22T23:12:19.109Z,244.07
2019-02-22T23:14:51.114Z,232.43
2019-02-22T23:17:22.237Z,249.67
2019-02-22T23:19:53.324Z,254.17
2019-02-22T23:22:24.453Z,264.40
2019-02-22T23:24:55.715Z,251.47
2019-02-22T23:27:26.863Z,262.70
2019-02-22T23:29:57.956Z,262.77
2019-02-22T23:32:29.130Z,217.00
2019-02-22T23:35:00.314Z,202.50
2019-02-22T23:37:31.351Z,208.17
2019-02-22T23:40:02.474Z,217.70
2019-02-22T23:42:33.597Z,181.10
2019-02-22T23:45:04.752Z,193.43
2019-02-22T23:47:35.865Z,201.73
2019-02-22T23:50:06.980Z,179.10
2019-02-22T23:52:38.155Z,183.93
2019-02-22T23:55:09.236Z,163.30
2019-02-22T23:57:40.343Z,174.73
